Sisimiut

KL  EN  DA
ASIAQ
Weather Now GREENLAND SURVEY
Updated [WGT/WGST] Temperature [°C] Wind [m/s] Air pressure [hPa] Relative humidity [%] Precipitation [mm]
Present Wind chill Speed Max
18.04 00:00-9,7-17,35,3 ⇐7,4101761n/a
17.04 23:00-10,5-17,74,6 ⇐5,8101764n/a
17.04 22:00-10,8-18,55,2 ⇐7,0101763n/a
17.04 21:00-10,7-17,13,7 ⇐4,8101766n/a
17.04 20:00-10,9-17,43,7 ⇐4,7101667n/a
17.04 19:00-10,4-16,73,7 ⇐4,6101665n/a
17.04 18:00-10,6-17,23,9 ⇐5,2101667n/a
17.04 17:00-9,9-15,02,7 ⇐4,7101567n/a
17.04 16:00-9,1-13,62,4 ⇐3,5101566n/a
17.04 15:00-10,10,01,3 ⇙2,3101470n/a
17.04 14:00-11,0-18,64,9 ⇐5,9101371n/a
17.04 13:00-11,2-18,34,4 ⇐5,5101373n/a
17.04 12:00-10,9-18,85,4 ⇐6,7101370n/a
17.04 11:00-10,8-17,13,5 ⇐5,0101268n/a
17.04 10:00-12,2-19,84,6 ⇐5,7101278n/a
17.04 09:00-12,1-19,94,8 ⇐6,5101280n/a
17.04 08:00-12,4-20,65,1 ⇐6,5101177n/a
17.04 07:00-12,7-20,34,4 ⇐5,9101165n/a
17.04 06:00-12,3-18,63,3 ⇐4,9101165n/a
17.04 05:00-12,80,00,4 ⇙1,9101168n/a
17.04 04:00-13,0-19,02,9 ⇐3,7101063n/a
17.04 03:00-13,1-19,43,1 ⇐3,7101069n/a
17.04 02:00-13,5-20,03,2 ⇐4,3101075n/a
17.04 01:00-14,0-21,54,0 ⇐5,4101072n/a
17.04 00:00-13,6-18,32,0 ⇐2,7101064n/a
Position: (66.95138888888,-53.729444444)

[Back]